Aviation Digital Data Service (ADDS)

Output produced by METARs form (2224 UTC 23 March 2019)
found at http://www.aviationweather.gov/metar/data/
 
Forecast for: DNIL (ILORIN , NG)
Text: TAF DNIL 231540Z 2318/2424 32005KT 9999 SCT014
Forecast period: 1800 to 2100 UTC 23 March 2019
Forecast type: FROM: standard forecast or significant change
Winds: from the NW (320 degrees) at 6 MPH (5 knots; 2.6 m/s)
Visibility: 6 or more miles 10+ km)
Ceiling: at least 12,000 feet AGL
Clouds: scattered clouds at 1400 feet AGL
Weather: no significant weather forecast for this period
Text: BECMG
Forecast period: 2100 UTC 23 March 2019 to 0000 UTC 25 March 2019
Forecast type: BECOMING: Conditions expected to become as follows by 2300 UTC 23 March 2019
Winds: from the S (170 degrees) at 7 MPH (6 knots; 3.1 m/s)
Visibility: 6 or more miles 10+ km)
Ceiling: unknown
Clouds: missing
Weather: NSW  (no significant weather)